sensor_id;sensor_type;location;lat;lon;timestamp;P1;durP1;ratioP1;P2;durP2;ratioP2
16965;SDS011;8599;47.852;12.070;2023-04-24T00:00:21;1.63;;;0.60;;
16965;SDS011;8599;47.852;12.070;2023-04-24T00:02:48;0.43;;;0.43;;
16965;SDS011;8599;47.852;12.070;2023-04-24T00:05:16;3.67;;;0.50;;
16965;SDS011;8599;47.852;12.070;2023-04-24T00:07:44;1.30;;;0.43;;
16965;SDS011;8599;47.852;12.070;2023-04-24T00:10:11;0.43;;;0.43;;
16965;SDS011;8599;47.852;12.070;2023-04-24T00:12:38;2.70;;;0.37;;
16965;SDS011;8599;47.852;12.070;2023-04-24T00:15:05;1.50;;;0.30;;
16965;SDS011;8599;47.852;12.070;2023-04-24T00:17:33;2.40;;;0.80;;
16965;SDS011;8599;47.852;12.070;2023-04-24T00:20:00;0.80;;;0.60;;
16965;SDS011;8599;47.852;12.070;2023-04-24T00:22:30;0.60;;;0.60;;
16965;SDS011;8599;47.852;12.070;2023-04-24T00:24:57;0.40;;;0.40;;
16965;SDS011;8599;47.852;12.070;2023-04-24T00:27:24;0.40;;;0.40;;
16965;SDS011;8599;47.852;12.070;2023-04-24T00:29:51;0.60;;;0.60;;
16965;SDS011;8599;47.852;12.070;2023-04-24T00:32:18;0.47;;;0.40;;
16965;SDS011;8599;47.852;12.070;2023-04-24T00:34:45;0.50;;;0.50;;
16965;SDS011;8599;47.852;12.070;2023-04-24T00:37:12;0.50;;;0.50;;
16965;SDS011;8599;47.852;12.070;2023-04-24T00:39:40;4.97;;;0.80;;
16965;SDS011;8599;47.852;12.070;2023-04-24T00:42:06;0.70;;;0.70;;
16965;SDS011;8599;47.852;12.070;2023-04-24T00:44:33;1.43;;;0.70;;
16965;SDS011;8599;47.852;12.070;2023-04-24T00:47:00;3.30;;;0.70;;
16965;SDS011;8599;47.852;12.070;2023-04-24T00:49:27;0.60;;;0.60;;
16965;SDS011;8599;47.852;12.070;2023-04-24T00:51:54;0.70;;;0.70;;
16965;SDS011;8599;47.852;12.070;2023-04-24T00:54:22;1.83;;;0.70;;
16965;SDS011;8599;47.852;12.070;2023-04-24T00:56:50;0.67;;;0.63;;
16965;SDS011;8599;47.852;12.070;2023-04-24T00:59:17;1.33;;;0.97;;
16965;SDS011;8599;47.852;12.070;2023-04-24T01:01:44;0.87;;;0.73;;
16965;SDS011;8599;47.852;12.070;2023-04-24T01:04:12;0.80;;;0.80;;
16965;SDS011;8599;47.852;12.070;2023-04-24T01:06:40;1.50;;;0.90;;
16965;SDS011;8599;47.852;12.070;2023-04-24T01:09:10;0.80;;;0.80;;
16965;SDS011;8599;47.852;12.070;2023-04-24T01:11:37;0.90;;;0.90;;
16965;SDS011;8599;47.852;12.070;2023-04-24T01:14:08;2.03;;;0.97;;
16965;SDS011;8599;47.852;12.070;2023-04-24T01:16:35;2.73;;;1.03;;
16965;SDS011;8599;47.852;12.070;2023-04-24T01:19:03;1.10;;;0.90;;
16965;SDS011;8599;47.852;12.070;2023-04-24T01:21:30;0.70;;;0.70;;
16965;SDS011;8599;47.852;12.070;2023-04-24T01:24:03;0.80;;;0.80;;
16965;SDS011;8599;47.852;12.070;2023-04-24T01:26:30;0.63;;;0.63;;
16965;SDS011;8599;47.852;12.070;2023-04-24T01:28:57;1.23;;;0.70;;
16965;SDS011;8599;47.852;12.070;2023-04-24T01:31:24;0.67;;;0.67;;
16965;SDS011;8599;47.852;12.070;2023-04-24T01:33:51;1.60;;;1.20;;
16965;SDS011;8599;47.852;12.070;2023-04-24T01:36:19;2.33;;;0.83;;
16965;SDS011;8599;47.852;12.070;2023-04-24T01:38:47;1.60;;;0.77;;
16965;SDS011;8599;47.852;12.070;2023-04-24T01:41:16;1.20;;;0.70;;
16965;SDS011;8599;47.852;12.070;2023-04-24T01:43:42;0.70;;;0.70;;
16965;SDS011;8599;47.852;12.070;2023-04-24T01:46:09;0.60;;;0.60;;
16965;SDS011;8599;47.852;12.070;2023-04-24T01:48:36;0.43;;;0.43;;
16965;SDS011;8599;47.852;12.070;2023-04-24T01:51:03;0.70;;;0.70;;
16965;SDS011;8599;47.852;12.070;2023-04-24T01:53:29;0.77;;;0.70;;
16965;SDS011;8599;47.852;12.070;2023-04-24T01:55:56;0.80;;;0.77;;
16965;SDS011;8599;47.852;12.070;2023-04-24T01:58:25;0.60;;;0.60;;
16965;SDS011;8599;47.852;12.070;2023-04-24T02:00:52;0.53;;;0.53;;
16965;SDS011;8599;47.852;12.070;2023-04-24T02:03:21;0.90;;;0.70;;
16965;SDS011;8599;47.852;12.070;2023-04-24T02:05:48;0.60;;;0.60;;
16965;SDS011;8599;47.852;12.070;2023-04-24T02:08:15;0.90;;;0.90;;
16965;SDS011;8599;47.852;12.070;2023-04-24T02:10:42;0.70;;;0.70;;
16965;SDS011;8599;47.852;12.070;2023-04-24T02:13:09;1.00;;;0.70;;
16965;SDS011;8599;47.852;12.070;2023-04-24T02:15:37;3.60;;;0.80;;
16965;SDS011;8599;47.852;12.070;2023-04-24T02:18:04;1.00;;;1.00;;
16965;SDS011;8599;47.852;12.070;2023-04-24T02:20:31;0.63;;;0.63;;
16965;SDS011;8599;47.852;12.070;2023-04-24T02:22:59;1.37;;;1.27;;
16965;SDS011;8599;47.852;12.070;2023-04-24T02:25:25;2.10;;;1.20;;
16965;SDS011;8599;47.852;12.070;2023-04-24T02:27:52;4.00;;;1.67;;
16965;SDS011;8599;47.852;12.070;2023-04-24T02:30:19;0.87;;;0.87;;
16965;SDS011;8599;47.852;12.070;2023-04-24T02:32:47;1.03;;;0.93;;
16965;SDS011;8599;47.852;12.070;2023-04-24T02:35:14;2.47;;;1.57;;
16965;SDS011;8599;47.852;12.070;2023-04-24T02:37:41;1.27;;;1.17;;
16965;SDS011;8599;47.852;12.070;2023-04-24T02:40:08;3.97;;;0.97;;
16965;SDS011;8599;47.852;12.070;2023-04-24T02:42:35;0.80;;;0.80;;
16965;SDS011;8599;47.852;12.070;2023-04-24T02:45:02;1.67;;;1.00;;
16965;SDS011;8599;47.852;12.070;2023-04-24T02:47:30;5.73;;;1.27;;
16965;SDS011;8599;47.852;12.070;2023-04-24T02:49:58;0.90;;;0.90;;
16965;SDS011;8599;47.852;12.070;2023-04-24T02:52:25;1.67;;;1.00;;
16965;SDS011;8599;47.852;12.070;2023-04-24T02:54:51;3.30;;;1.00;;
16965;SDS011;8599;47.852;12.070;2023-04-24T02:57:19;1.33;;;0.80;;
16965;SDS011;8599;47.852;12.070;2023-04-24T02:59:45;3.13;;;0.53;;
16965;SDS011;8599;47.852;12.070;2023-04-24T03:02:12;0.60;;;0.60;;
16965;SDS011;8599;47.852;12.070;2023-04-24T03:04:39;0.80;;;0.77;;
16965;SDS011;8599;47.852;12.070;2023-04-24T03:07:09;0.60;;;0.60;;
16965;SDS011;8599;47.852;12.070;2023-04-24T03:09:36;0.60;;;0.60;;
16965;SDS011;8599;47.852;12.070;2023-04-24T03:12:03;0.70;;;0.70;;
16965;SDS011;8599;47.852;12.070;2023-04-24T03:14:29;0.57;;;0.57;;
16965;SDS011;8599;47.852;12.070;2023-04-24T03:16:56;1.83;;;0.77;;
16965;SDS011;8599;47.852;12.070;2023-04-24T03:19:23;0.73;;;0.70;;
16965;SDS011;8599;47.852;12.070;2023-04-24T03:21:50;0.40;;;0.40;;
16965;SDS011;8599;47.852;12.070;2023-04-24T03:24:18;0.70;;;0.70;;
16965;SDS011;8599;47.852;12.070;2023-04-24T03:26:45;0.40;;;0.40;;
16965;SDS011;8599;47.852;12.070;2023-04-24T03:29:12;1.00;;;0.80;;
16965;SDS011;8599;47.852;12.070;2023-04-24T03:31:39;1.33;;;0.70;;
16965;SDS011;8599;47.852;12.070;2023-04-24T03:34:06;0.50;;;0.50;;
16965;SDS011;8599;47.852;12.070;2023-04-24T03:36:32;0.60;;;0.60;;
16965;SDS011;8599;47.852;12.070;2023-04-24T03:38:59;0.50;;;0.50;;
16965;SDS011;8599;47.852;12.070;2023-04-24T03:41:27;0.60;;;0.60;;
16965;SDS011;8599;47.852;12.070;2023-04-24T03:43:55;1.50;;;0.60;;
16965;SDS011;8599;47.852;12.070;2023-04-24T03:46:22;0.63;;;0.53;;
16965;SDS011;8599;47.852;12.070;2023-04-24T03:48:49;0.93;;;0.57;;
16965;SDS011;8599;47.852;12.070;2023-04-24T03:51:15;0.50;;;0.50;;
16965;SDS011;8599;47.852;12.070;2023-04-24T03:53:42;0.93;;;0.60;;
16965;SDS011;8599;47.852;12.070;2023-04-24T03:56:09;0.40;;;0.40;;
16965;SDS011;8599;47.852;12.070;2023-04-24T03:58:37;0.63;;;0.63;;
16965;SDS011;8599;47.852;12.070;2023-04-24T04:01:04;1.47;;;0.70;;
16965;SDS011;8599;47.852;12.070;2023-04-24T04:03:31;0.93;;;0.70;;
16965;SDS011;8599;47.852;12.070;2023-04-24T04:05:58;0.50;;;0.50;;
16965;SDS011;8599;47.852;12.070;2023-04-24T04:08:25;0.97;;;0.80;;
16965;SDS011;8599;47.852;12.070;2023-04-24T04:10:52;1.08;;;0.90;;
16965;SDS011;8599;47.852;12.070;2023-04-24T04:13:19;2.00;;;0.93;;
16965;SDS011;8599;47.852;12.070;2023-04-24T04:15:47;2.47;;;1.10;;
16965;SDS011;8599;47.852;12.070;2023-04-24T04:18:13;1.90;;;1.53;;
16965;SDS011;8599;47.852;12.070;2023-04-24T04:20:40;4.57;;;2.30;;
16965;SDS011;8599;47.852;12.070;2023-04-24T04:23:07;4.63;;;2.17;;
16965;SDS011;8599;47.852;12.070;2023-04-24T04:25:34;3.40;;;2.20;;
16965;SDS011;8599;47.852;12.070;2023-04-24T04:28:01;5.63;;;2.17;;
16965;SDS011;8599;47.852;12.070;2023-04-24T04:30:28;2.27;;;1.53;;
16965;SDS011;8599;47.852;12.070;2023-04-24T04:32:58;1.60;;;1.50;;
16965;SDS011;8599;47.852;12.070;2023-04-24T04:35:25;2.43;;;1.30;;
16965;SDS011;8599;47.852;12.070;2023-04-24T04:37:52;2.67;;;1.50;;
16965;SDS011;8599;47.852;12.070;2023-04-24T04:40:19;4.40;;;1.57;;
16965;SDS011;8599;47.852;12.070;2023-04-24T04:42:46;5.10;;;1.00;;
16965;SDS011;8599;47.852;12.070;2023-04-24T04:45:12;1.50;;;0.80;;
16965;SDS011;8599;47.852;12.070;2023-04-24T04:47:42;0.63;;;0.63;;
16965;SDS011;8599;47.852;12.070;2023-04-24T04:50:10;0.90;;;0.90;;
16965;SDS011;8599;47.852;12.070;2023-04-24T04:52:37;0.80;;;0.70;;
16965;SDS011;8599;47.852;12.070;2023-04-24T04:55:04;0.70;;;0.60;;
16965;SDS011;8599;47.852;12.070;2023-04-24T04:57:32;0.70;;;0.70;;
16965;SDS011;8599;47.852;12.070;2023-04-24T04:59:59;0.80;;;0.80;;
16965;SDS011;8599;47.852;12.070;2023-04-24T05:02:26;2.13;;;0.80;;
16965;SDS011;8599;47.852;12.070;2023-04-24T05:04:53;0.67;;;0.67;;
16965;SDS011;8599;47.852;12.070;2023-04-24T05:07:21;1.70;;;0.57;;
16965;SDS011;8599;47.852;12.070;2023-04-24T05:09:48;0.50;;;0.50;;
16965;SDS011;8599;47.852;12.070;2023-04-24T05:12:16;0.60;;;0.60;;
16965;SDS011;8599;47.852;12.070;2023-04-24T05:14:43;2.20;;;0.57;;
16965;SDS011;8599;47.852;12.070;2023-04-24T05:17:10;2.73;;;0.60;;
16965;SDS011;8599;47.852;12.070;2023-04-24T05:19:36;0.57;;;0.57;;
16965;SDS011;8599;47.852;12.070;2023-04-24T05:22:03;2.60;;;0.50;;
16965;SDS011;8599;47.852;12.070;2023-04-24T05:24:33;0.50;;;0.50;;
16965;SDS011;8599;47.852;12.070;2023-04-24T05:27:00;1.10;;;0.80;;
16965;SDS011;8599;47.852;12.070;2023-04-24T05:29:27;1.07;;;0.70;;
16965;SDS011;8599;47.852;12.070;2023-04-24T05:31:55;1.87;;;0.70;;
16965;SDS011;8599;47.852;12.070;2023-04-24T05:34:22;1.37;;;1.17;;
16965;SDS011;8599;47.852;12.070;2023-04-24T05:36:49;1.20;;;1.10;;
16965;SDS011;8599;47.852;12.070;2023-04-24T05:39:16;2.53;;;1.23;;
16965;SDS011;8599;47.852;12.070;2023-04-24T05:41:46;1.23;;;0.80;;
16965;SDS011;8599;47.852;12.070;2023-04-24T05:44:12;0.60;;;0.60;;
16965;SDS011;8599;47.852;12.070;2023-04-24T05:46:39;1.03;;;0.70;;
16965;SDS011;8599;47.852;12.070;2023-04-24T05:49:06;0.87;;;0.87;;
16965;SDS011;8599;47.852;12.070;2023-04-24T05:51:33;3.90;;;0.93;;
16965;SDS011;8599;47.852;12.070;2023-04-24T05:54:00;0.93;;;0.93;;
16965;SDS011;8599;47.852;12.070;2023-04-24T05:56:28;1.13;;;0.80;;
16965;SDS011;8599;47.852;12.070;2023-04-24T05:58:57;4.27;;;1.00;;
16965;SDS011;8599;47.852;12.070;2023-04-24T06:01:23;1.77;;;0.57;;
16965;SDS011;8599;47.852;12.070;2023-04-24T06:03:51;7.00;;;0.67;;
16965;SDS011;8599;47.852;12.070;2023-04-24T06:06:18;2.20;;;0.43;;
16965;SDS011;8599;47.852;12.070;2023-04-24T06:08:45;0.80;;;0.80;;
16965;SDS011;8599;47.852;12.070;2023-04-24T06:11:12;1.53;;;1.43;;
16965;SDS011;8599;47.852;12.070;2023-04-24T06:13:39;1.67;;;0.90;;
16965;SDS011;8599;47.852;12.070;2023-04-24T06:16:07;1.90;;;1.63;;
16965;SDS011;8599;47.852;12.070;2023-04-24T06:18:34;5.10;;;3.03;;
16965;SDS011;8599;47.852;12.070;2023-04-24T06:21:01;3.03;;;1.83;;
16965;SDS011;8599;47.852;12.070;2023-04-24T06:23:27;6.07;;;2.60;;
16965;SDS011;8599;47.852;12.070;2023-04-24T06:25:57;0.70;;;0.70;;
16965;SDS011;8599;47.852;12.070;2023-04-24T06:28:26;2.07;;;1.50;;
16965;SDS011;8599;47.852;12.070;2023-04-24T06:30:53;2.40;;;1.63;;
16965;SDS011;8599;47.852;12.070;2023-04-24T06:33:22;4.73;;;3.30;;
16965;SDS011;8599;47.852;12.070;2023-04-24T06:35:48;2.80;;;1.50;;
16965;SDS011;8599;47.852;12.070;2023-04-24T06:38:15;13.70;;;6.17;;
16965;SDS011;8599;47.852;12.070;2023-04-24T06:40:42;17.87;;;7.77;;
16965;SDS011;8599;47.852;12.070;2023-04-24T06:43:09;9.57;;;4.27;;
16965;SDS011;8599;47.852;12.070;2023-04-24T06:45:36;3.97;;;2.60;;
16965;SDS011;8599;47.852;12.070;2023-04-24T06:48:04;1.90;;;1.47;;
16965;SDS011;8599;47.852;12.070;2023-04-24T06:50:32;2.07;;;1.20;;
16965;SDS011;8599;47.852;12.070;2023-04-24T06:53:00;1.80;;;1.03;;
16965;SDS011;8599;47.852;12.070;2023-04-24T06:55:27;2.13;;;1.10;;
16965;SDS011;8599;47.852;12.070;2023-04-24T06:57:53;1.47;;;0.93;;
16965;SDS011;8599;47.852;12.070;2023-04-24T07:00:20;0.83;;;0.80;;
16965;SDS011;8599;47.852;12.070;2023-04-24T07:02:49;1.90;;;1.70;;
16965;SDS011;8599;47.852;12.070;2023-04-24T07:05:16;12.20;;;4.87;;
16965;SDS011;8599;47.852;12.070;2023-04-24T07:07:46;2.20;;;1.47;;
16965;SDS011;8599;47.852;12.070;2023-04-24T07:10:14;2.60;;;2.30;;
16965;SDS011;8599;47.852;12.070;2023-04-24T07:12:40;4.37;;;3.00;;
16965;SDS011;8599;47.852;12.070;2023-04-24T07:15:08;7.97;;;3.63;;
16965;SDS011;8599;47.852;12.070;2023-04-24T07:17:35;3.03;;;2.30;;
16965;SDS011;8599;47.852;12.070;2023-04-24T07:20:03;1.87;;;1.13;;
16965;SDS011;8599;47.852;12.070;2023-04-24T07:22:34;5.23;;;2.10;;
16965;SDS011;8599;47.852;12.070;2023-04-24T07:25:02;2.03;;;1.40;;
16965;SDS011;8599;47.852;12.070;2023-04-24T07:27:29;6.27;;;2.43;;
16965;SDS011;8599;47.852;12.070;2023-04-24T07:29:56;2.03;;;1.30;;
16965;SDS011;8599;47.852;12.070;2023-04-24T07:32:23;1.03;;;1.00;;
16965;SDS011;8599;47.852;12.070;2023-04-24T07:34:50;8.27;;;4.07;;
16965;SDS011;8599;47.852;12.070;2023-04-24T07:37:17;9.80;;;4.90;;
16965;SDS011;8599;47.852;12.070;2023-04-24T07:39:44;10.90;;;3.97;;
16965;SDS011;8599;47.852;12.070;2023-04-24T07:42:12;6.73;;;2.10;;
16965;SDS011;8599;47.852;12.070;2023-04-24T07:44:39;5.30;;;1.60;;
16965;SDS011;8599;47.852;12.070;2023-04-24T07:47:06;1.10;;;0.73;;
16965;SDS011;8599;47.852;12.070;2023-04-24T07:49:34;0.70;;;0.60;;
16965;SDS011;8599;47.852;12.070;2023-04-24T07:52:01;3.53;;;2.10;;
16965;SDS011;8599;47.852;12.070;2023-04-24T07:54:27;5.40;;;2.73;;
16965;SDS011;8599;47.852;12.070;2023-04-24T07:56:54;1.57;;;0.90;;
16965;SDS011;8599;47.852;12.070;2023-04-24T07:59:23;0.90;;;0.90;;
16965;SDS011;8599;47.852;12.070;2023-04-24T08:01:49;1.47;;;0.83;;
16965;SDS011;8599;47.852;12.070;2023-04-24T08:04:16;2.17;;;1.30;;
16965;SDS011;8599;47.852;12.070;2023-04-24T08:06:44;6.13;;;2.20;;
16965;SDS011;8599;47.852;12.070;2023-04-24T08:09:11;0.63;;;0.63;;
16965;SDS011;8599;47.852;12.070;2023-04-24T08:11:38;1.10;;;0.60;;
16965;SDS011;8599;47.852;12.070;2023-04-24T08:14:05;2.03;;;0.47;;
16965;SDS011;8599;47.852;12.070;2023-04-24T08:16:33;0.50;;;0.50;;
16965;SDS011;8599;47.852;12.070;2023-04-24T08:19:01;1.07;;;0.60;;
16965;SDS011;8599;47.852;12.070;2023-04-24T08:21:27;1.17;;;0.63;;
16965;SDS011;8599;47.852;12.070;2023-04-24T08:23:54;0.43;;;0.43;;
16965;SDS011;8599;47.852;12.070;2023-04-24T08:26:21;0.73;;;0.40;;
16965;SDS011;8599;47.852;12.070;2023-04-24T08:28:48;1.30;;;0.40;;
16965;SDS011;8599;47.852;12.070;2023-04-24T08:31:15;2.90;;;1.27;;
16965;SDS011;8599;47.852;12.070;2023-04-24T08:33:43;2.93;;;0.50;;
16965;SDS011;8599;47.852;12.070;2023-04-24T08:36:10;0.63;;;0.57;;
16965;SDS011;8599;47.852;12.070;2023-04-24T08:38:37;2.63;;;0.20;;
16965;SDS011;8599;47.852;12.070;2023-04-24T08:41:04;0.20;;;0.20;;
16965;SDS011;8599;47.852;12.070;2023-04-24T08:43:33;0.20;;;0.20;;
16965;SDS011;8599;47.852;12.070;2023-04-24T08:46:03;0.60;;;0.60;;
16965;SDS011;8599;47.852;12.070;2023-04-24T08:48:31;0.50;;;0.50;;
16965;SDS011;8599;47.852;12.070;2023-04-24T08:50:59;0.40;;;0.40;;
16965;SDS011;8599;47.852;12.070;2023-04-24T08:53:27;2.00;;;0.40;;
16965;SDS011;8599;47.852;12.070;2023-04-24T08:55:54;0.30;;;0.30;;
16965;SDS011;8599;47.852;12.070;2023-04-24T08:58:22;0.47;;;0.40;;
16965;SDS011;8599;47.852;12.070;2023-04-24T09:00:51;0.30;;;0.30;;
16965;SDS011;8599;47.852;12.070;2023-04-24T09:03:20;0.37;;;0.30;;
16965;SDS011;8599;47.852;12.070;2023-04-24T09:05:47;5.10;;;0.50;;
16965;SDS011;8599;47.852;12.070;2023-04-24T09:08:17;0.30;;;0.30;;
16965;SDS011;8599;47.852;12.070;2023-04-24T09:10:45;0.40;;;0.40;;
16965;SDS011;8599;47.852;12.070;2023-04-24T09:13:12;0.23;;;0.23;;
16965;SDS011;8599;47.852;12.070;2023-04-24T09:15:40;0.30;;;0.30;;
16965;SDS011;8599;47.852;12.070;2023-04-24T09:18:07;1.70;;;0.43;;
16965;SDS011;8599;47.852;12.070;2023-04-24T09:20:34;1.03;;;0.57;;
16965;SDS011;8599;47.852;12.070;2023-04-24T09:23:22;0.30;;;0.30;;
16965;SDS011;8599;47.852;12.070;2023-04-24T09:25:53;0.53;;;0.43;;
16965;SDS011;8599;47.852;12.070;2023-04-24T09:28:24;0.70;;;0.50;;
16965;SDS011;8599;47.852;12.070;2023-04-24T09:31:02;1.27;;;0.60;;
16965;SDS011;8599;47.852;12.070;2023-04-24T09:33:30;0.50;;;0.50;;
16965;SDS011;8599;47.852;12.070;2023-04-24T09:35:57;0.50;;;0.50;;
16965;SDS011;8599;47.852;12.070;2023-04-24T09:38:31;0.63;;;0.53;;
16965;SDS011;8599;47.852;12.070;2023-04-24T09:41:00;0.97;;;0.50;;
16965;SDS011;8599;47.852;12.070;2023-04-24T09:43:28;0.50;;;0.50;;
16965;SDS011;8599;47.852;12.070;2023-04-24T09:45:56;1.77;;;1.43;;
16965;SDS011;8599;47.852;12.070;2023-04-24T09:48:30;0.70;;;0.70;;
16965;SDS011;8599;47.852;12.070;2023-04-24T09:50:58;0.90;;;0.90;;
16965;SDS011;8599;47.852;12.070;2023-04-24T09:53:27;1.00;;;0.90;;
16965;SDS011;8599;47.852;12.070;2023-04-24T09:55:56;1.77;;;0.67;;
16965;SDS011;8599;47.852;12.070;2023-04-24T09:58:28;0.63;;;0.60;;
16965;SDS011;8599;47.852;12.070;2023-04-24T10:00:56;0.70;;;0.70;;
16965;SDS011;8599;47.852;12.070;2023-04-24T10:03:23;0.60;;;0.60;;
16965;SDS011;8599;47.852;12.070;2023-04-24T10:05:52;0.80;;;0.80;;
16965;SDS011;8599;47.852;12.070;2023-04-24T10:08:20;0.77;;;0.77;;
16965;SDS011;8599;47.852;12.070;2023-04-24T10:10:47;0.70;;;0.70;;
16965;SDS011;8599;47.852;12.070;2023-04-24T10:13:15;1.07;;;0.60;;
16965;SDS011;8599;47.852;12.070;2023-04-24T10:15:42;0.57;;;0.57;;
16965;SDS011;8599;47.852;12.070;2023-04-24T10:18:10;0.63;;;0.63;;
16965;SDS011;8599;47.852;12.070;2023-04-24T10:20:38;2.33;;;1.17;;
16965;SDS011;8599;47.852;12.070;2023-04-24T10:23:06;1.60;;;1.10;;
16965;SDS011;8599;47.852;12.070;2023-04-24T10:25:33;0.87;;;0.87;;
16965;SDS011;8599;47.852;12.070;2023-04-24T10:28:01;2.53;;;0.80;;
16965;SDS011;8599;47.852;12.070;2023-04-24T10:30:30;0.63;;;0.63;;
16965;SDS011;8599;47.852;12.070;2023-04-24T10:33:00;4.03;;;1.90;;
16965;SDS011;8599;47.852;12.070;2023-04-24T10:35:30;1.00;;;0.97;;
16965;SDS011;8599;47.852;12.070;2023-04-24T10:37:58;2.70;;;0.70;;
16965;SDS011;8599;47.852;12.070;2023-04-24T10:40:30;4.67;;;0.70;;
16965;SDS011;8599;47.852;12.070;2023-04-24T10:42:58;0.93;;;0.70;;
16965;SDS011;8599;47.852;12.070;2023-04-24T10:45:26;0.70;;;0.70;;
16965;SDS011;8599;47.852;12.070;2023-04-24T10:48:03;0.60;;;0.60;;
16965;SDS011;8599;47.852;12.070;2023-04-24T10:50:42;1.50;;;0.60;;
16965;SDS011;8599;47.852;12.070;2023-04-24T10:53:12;0.40;;;0.40;;
16965;SDS011;8599;47.852;12.070;2023-04-24T10:55:41;1.17;;;0.80;;
16965;SDS011;8599;47.852;12.070;2023-04-24T10:58:10;0.50;;;0.50;;
16965;SDS011;8599;47.852;12.070;2023-04-24T11:00:37;0.73;;;0.70;;
16965;SDS011;8599;47.852;12.070;2023-04-24T11:03:06;0.93;;;0.73;;
16965;SDS011;8599;47.852;12.070;2023-04-24T11:05:49;1.33;;;0.93;;
16965;SDS011;8599;47.852;12.070;2023-04-24T11:08:26;2.70;;;0.80;;
16965;SDS011;8599;47.852;12.070;2023-04-24T11:10:56;1.50;;;1.07;;
16965;SDS011;8599;47.852;12.070;2023-04-24T11:13:25;0.60;;;0.60;;
16965;SDS011;8599;47.852;12.070;2023-04-24T11:16:12;3.23;;;0.80;;
16965;SDS011;8599;47.852;12.070;2023-04-24T11:18:41;1.87;;;0.70;;
16965;SDS011;8599;47.852;12.070;2023-04-24T11:21:11;1.50;;;0.70;;
16965;SDS011;8599;47.852;12.070;2023-04-24T11:23:38;2.63;;;0.90;;
16965;SDS011;8599;47.852;12.070;2023-04-24T11:26:12;0.90;;;0.90;;
16965;SDS011;8599;47.852;12.070;2023-04-24T11:28:46;1.30;;;0.80;;
16965;SDS011;8599;47.852;12.070;2023-04-24T11:34:08;0.93;;;0.93;;
16965;SDS011;8599;47.852;12.070;2023-04-24T11:36:36;0.80;;;0.80;;
16965;SDS011;8599;47.852;12.070;2023-04-24T11:39:03;2.30;;;0.80;;
16965;SDS011;8599;47.852;12.070;2023-04-24T11:41:30;1.93;;;0.80;;
16965;SDS011;8599;47.852;12.070;2023-04-24T11:43:57;0.83;;;0.80;;
16965;SDS011;8599;47.852;12.070;2023-04-24T11:46:27;1.30;;;0.97;;
16965;SDS011;8599;47.852;12.070;2023-04-24T11:48:54;0.83;;;0.67;;
16965;SDS011;8599;47.852;12.070;2023-04-24T11:51:23;4.43;;;0.80;;
16965;SDS011;8599;47.852;12.070;2023-04-24T11:53:51;0.67;;;0.67;;
16965;SDS011;8599;47.852;12.070;2023-04-24T11:56:19;1.33;;;1.00;;
16965;SDS011;8599;47.852;12.070;2023-04-24T11:58:46;4.50;;;0.90;;
16965;SDS011;8599;47.852;12.070;2023-04-24T12:01:13;0.90;;;0.60;;
16965;SDS011;8599;47.852;12.070;2023-04-24T12:03:40;0.57;;;0.47;;
16965;SDS011;8599;47.852;12.070;2023-04-24T12:06:09;2.83;;;0.60;;
16965;SDS011;8599;47.852;12.070;2023-04-24T12:08:38;0.97;;;0.60;;
16965;SDS011;8599;47.852;12.070;2023-04-24T12:11:06;0.60;;;0.60;;
16965;SDS011;8599;47.852;12.070;2023-04-24T12:13:33;0.60;;;0.60;;
16965;SDS011;8599;47.852;12.070;2023-04-24T12:16:01;0.80;;;0.70;;
16965;SDS011;8599;47.852;12.070;2023-04-24T12:18:29;0.60;;;0.60;;
16965;SDS011;8599;47.852;12.070;2023-04-24T12:23:43;0.70;;;0.70;;
16965;SDS011;8599;47.852;12.070;2023-04-24T12:26:10;1.40;;;0.90;;
16965;SDS011;8599;47.852;12.070;2023-04-24T12:28:38;2.87;;;0.90;;
16965;SDS011;8599;47.852;12.070;2023-04-24T12:31:05;0.87;;;0.77;;
16965;SDS011;8599;47.852;12.070;2023-04-24T12:33:33;0.57;;;0.57;;
16965;SDS011;8599;47.852;12.070;2023-04-24T12:36:00;0.60;;;0.60;;
16965;SDS011;8599;47.852;12.070;2023-04-24T12:38:27;0.67;;;0.67;;
16965;SDS011;8599;47.852;12.070;2023-04-24T12:41:02;0.60;;;0.60;;
16965;SDS011;8599;47.852;12.070;2023-04-24T12:43:30;0.90;;;0.50;;
16965;SDS011;8599;47.852;12.070;2023-04-24T12:45:57;1.03;;;0.70;;
16965;SDS011;8599;47.852;12.070;2023-04-24T12:48:25;1.10;;;0.70;;
16965;SDS011;8599;47.852;12.070;2023-04-24T12:50:51;0.73;;;0.70;;
16965;SDS011;8599;47.852;12.070;2023-04-24T12:53:18;1.07;;;0.70;;
16965;SDS011;8599;47.852;12.070;2023-04-24T12:55:45;1.47;;;0.80;;
16965;SDS011;8599;47.852;12.070;2023-04-24T12:58:19;3.60;;;0.80;;
16965;SDS011;8599;47.852;12.070;2023-04-24T13:00:46;1.83;;;0.73;;
16965;SDS011;8599;47.852;12.070;2023-04-24T13:03:13;2.50;;;0.77;;
16965;SDS011;8599;47.852;12.070;2023-04-24T13:05:41;1.57;;;1.00;;
16965;SDS011;8599;47.852;12.070;2023-04-24T13:08:09;1.63;;;0.70;;
16965;SDS011;8599;47.852;12.070;2023-04-24T13:10:37;0.60;;;0.60;;
16965;SDS011;8599;47.852;12.070;2023-04-24T13:13:05;0.77;;;0.77;;
16965;SDS011;8599;47.852;12.070;2023-04-24T13:15:33;1.57;;;0.90;;
16965;SDS011;8599;47.852;12.070;2023-04-24T13:18:00;0.73;;;0.73;;
16965;SDS011;8599;47.852;12.070;2023-04-24T13:20:27;0.53;;;0.53;;
16965;SDS011;8599;47.852;12.070;2023-04-24T13:22:54;1.03;;;0.93;;
16965;SDS011;8599;47.852;12.070;2023-04-24T13:25:21;0.77;;;0.77;;
16965;SDS011;8599;47.852;12.070;2023-04-24T13:27:48;0.70;;;0.70;;
16965;SDS011;8599;47.852;12.070;2023-04-24T13:30:15;2.00;;;0.90;;
16965;SDS011;8599;47.852;12.070;2023-04-24T13:32:44;1.03;;;0.80;;
16965;SDS011;8599;47.852;12.070;2023-04-24T13:35:10;0.87;;;0.87;;
16965;SDS011;8599;47.852;12.070;2023-04-24T13:37:37;2.70;;;0.70;;
16965;SDS011;8599;47.852;12.070;2023-04-24T13:40:04;4.33;;;1.00;;
16965;SDS011;8599;47.852;12.070;2023-04-24T13:42:32;0.70;;;0.50;;
16965;SDS011;8599;47.852;12.070;2023-04-24T13:44:59;0.83;;;0.63;;
16965;SDS011;8599;47.852;12.070;2023-04-24T13:47:26;0.80;;;0.80;;
16965;SDS011;8599;47.852;12.070;2023-04-24T13:49:54;1.70;;;0.83;;
16965;SDS011;8599;47.852;12.070;2023-04-24T13:52:21;1.37;;;0.87;;
16965;SDS011;8599;47.852;12.070;2023-04-24T13:54:47;0.60;;;0.60;;
16965;SDS011;8599;47.852;12.070;2023-04-24T13:57:14;0.97;;;0.90;;
16965;SDS011;8599;47.852;12.070;2023-04-24T13:59:41;1.40;;;0.60;;
16965;SDS011;8599;47.852;12.070;2023-04-24T14:02:08;0.70;;;0.70;;
16965;SDS011;8599;47.852;12.070;2023-04-24T14:04:35;1.90;;;1.17;;
16965;SDS011;8599;47.852;12.070;2023-04-24T14:07:03;0.83;;;0.83;;
16965;SDS011;8599;47.852;12.070;2023-04-24T14:09:30;0.97;;;0.83;;
16965;SDS011;8599;47.852;12.070;2023-04-24T14:11:57;0.90;;;0.90;;
16965;SDS011;8599;47.852;12.070;2023-04-24T14:14:24;1.10;;;0.67;;
16965;SDS011;8599;47.852;12.070;2023-04-24T14:16:50;1.20;;;0.90;;
16965;SDS011;8599;47.852;12.070;2023-04-24T14:19:17;1.23;;;0.87;;
16965;SDS011;8599;47.852;12.070;2023-04-24T14:21:44;1.00;;;0.90;;
16965;SDS011;8599;47.852;12.070;2023-04-24T14:24:12;1.37;;;0.93;;
16965;SDS011;8599;47.852;12.070;2023-04-24T14:26:39;0.93;;;0.93;;
16965;SDS011;8599;47.852;12.070;2023-04-24T14:29:06;2.23;;;1.07;;
16965;SDS011;8599;47.852;12.070;2023-04-24T14:31:33;2.80;;;0.90;;
16965;SDS011;8599;47.852;12.070;2023-04-24T14:33:59;1.97;;;1.07;;
16965;SDS011;8599;47.852;12.070;2023-04-24T14:36:26;1.70;;;1.00;;
16965;SDS011;8599;47.852;12.070;2023-04-24T14:38:53;4.13;;;0.90;;
16965;SDS011;8599;47.852;12.070;2023-04-24T14:41:21;1.03;;;0.90;;
16965;SDS011;8599;47.852;12.070;2023-04-24T14:43:48;1.27;;;1.07;;
16965;SDS011;8599;47.852;12.070;2023-04-24T14:46:15;2.87;;;1.00;;
16965;SDS011;8599;47.852;12.070;2023-04-24T14:48:41;1.07;;;0.83;;
16965;SDS011;8599;47.852;12.070;2023-04-24T14:51:08;1.80;;;0.90;;
16965;SDS011;8599;47.852;12.070;2023-04-24T14:53:35;4.93;;;1.07;;
16965;SDS011;8599;47.852;12.070;2023-04-24T14:56:02;1.37;;;1.03;;